Accueil
METAR-TAF:

METAR-TAF

Aéroports :

Nîmes, France

Aéroport de Nîmes–Alès–Camargue–Cévennes, Garons

latitude: 43-45N, longitude: 004-25E, altitude: 94 m

Observation

Le bulletin a été fait il y a 28 minutes, à 04:30 UTC
Vent 8 kt de nord
Température 4°C
Humidité 75%
Pression 1021 hPa
Visibilité 10 km ou plus
pas de nuages en-dessous de 1500 mètres et pas de cumulonimbus.

METAR: LFTW 180430Z AUTO 01008KT CAVOK 04/00 Q1021 NOSIG

Heure: 05:58 (04:58 UTC)

Prévision

Le bulletin a été fait il y a 2 heures et 58 minutes, à 02:00 UTC
Prévision valable du 18 à 03 UTC au 19 à 03 UTC
Vent 12 kt de nord
Visibilité 10 km ou plus
pas de nuages en-dessous de 1500 mètres et pas de cumulonimbus.
Evoluant progressivement
du 19 à 01 UTC au 19 à 03 UTC
Nuages fragmentés à une hauteur de 4000 ft

TAF: LFTW 180200Z 1803/1903 35012KT CAVOK BECMG 1901/1903 BKN040

Observations et prévisions météorologiques de plus de 4000 aéroports (messages METAR et TAF).

Les stations disponibles sont représentées par des disques jaunes et rouges sur la carte.

Passer la souris dessus pour voir le nom de la station.

Cliquer dessus pour voir les observations et prévisions météorologiques.

Pour changer de carte: cliquez sur les boutons verts avec une croix noire pour zoomer, sur le bouton vert avec un tiret pour effectuer un zoom arrière, ou sur les flèches vertes pour les cartes adjacentes.


METAR-TAF: